PWSweather.com
Personal Weather Stations
Station Observations
KCOWOODL7
North Of Dinosaur Center, Woodland Park, CO 80863

North Of Dinosaur CenterWoodland Park, CO 80863

Lat: 38.998056, Lon: -105.050833

Elevation: 8555

Station Type: Ambient WS-2095

Latest ConditionsUpdated 1:00:01 PM MST Monday, Feb 19, 2018
Currently Today's Max Today's Min Today's Average
Temperature 17.1°F-8.3°C 36.1°F2.3°C 15.1°F-9.4°C 23.8°F-4.6°C
Dew Point 4.5°F-15.3°C 20.2°F-6.6°C 0.9°F-17.3°C 10.4°F-12.0°C
Winds 2.1 mph S3.4 kmh S 6.1 mph SE9.8 kmh SE - 2.9 mph 4.7 kmh
Wind Gusts 4.0 mph6.4 kmh 12.8 mph20.6 kmh - -
Humidity 57% 82% 22% 58%
Pressure 29.50 in999.0 mb 29.61 in1002.7 mb 29.49 in998.6 mb -
Hour Temp Dew Point Humidity Winds Wind Gusts Pressure Precip Precip Rate Daily Precip Total
01:00 PM 17.1°F-8.3°C 4.5°F-15.3°C 57% 2.1 mph S3.4 kmh S 4.0 mph6.4 kmh 29.50 in999.0 mb 0.00 in0.0 mm 0.00 in0.0 mm 0.00 in0.0 mm
12:50 PM 18.3°F-7.6°C 2.9°F-16.2°C 50% 4.6 mph SE7.4 kmh SE 8.7 mph14.0 kmh 29.49 in998.6 mb 0.00 in0.0 mm 0.00 in0.0 mm 0.00 in0.0 mm
12:40 PM 24.3°F-4.3°C 8.3°F-13.2°C 50% 4.6 mph ESE7.4 kmh ESE 9.4 mph15.1 kmh 29.50 in999.0 mb 0.00 in0.0 mm 0.00 in0.0 mm 0.00 in0.0 mm
12:30 PM 30.4°F-0.9°C 11.1°F-11.6°C 44% 5.1 mph SE8.2 kmh SE 12.8 mph20.6 kmh 29.50 in999.0 mb 0.00 in0.0 mm 0.00 in0.0 mm 0.00 in0.0 mm
12:20 PM 32.5°F0.3°C 15.1°F-9.4°C 48% 3.6 mph SE5.8 kmh SE 11.4 mph18.3 kmh 29.50 in999.0 mb 0.00 in0.0 mm 0.00 in0.0 mm 0.00 in0.0 mm
12:10 PM 29.8°F-1.2°C 14.0°F-10.0°C 51% 4.0 mph SE6.4 kmh SE 7.4 mph11.9 kmh 29.50 in999.0 mb 0.00 in0.0 mm 0.00 in0.0 mm 0.00 in0.0 mm
12:00 PM 26.6°F-3.0°C 8.2°F-13.2°C 45% 6.1 mph SE9.8 kmh SE 12.8 mph20.6 kmh 29.50 in999.0 mb 0.00 in0.0 mm 0.00 in0.0 mm 0.00 in0.0 mm
11:50 AM 25.0°F-3.9°C 7.2°F-13.8°C 46% 2.7 mph SSE4.3 kmh SSE 6.7 mph10.8 kmh 29.50 in999.0 mb 0.00 in0.0 mm 0.00 in0.0 mm 0.00 in0.0 mm
11:40 AM 25.2°F-3.8°C 9.2°F-12.7°C 50% 2.2 mph ESE3.5 kmh ESE 6.7 mph10.8 kmh 29.51 in999.3 mb 0.00 in0.0 mm 0.00 in0.0 mm 0.00 in0.0 mm
11:30 AM 24.1°F-4.4°C 9.5°F-12.5°C 53% 3.0 mph SE4.8 kmh SE 6.0 mph9.7 kmh 29.52 in999.7 mb 0.00 in0.0 mm 0.00 in0.0 mm 0.00 in0.0 mm
11:20 AM 24.3°F-4.3°C 10.1°F-12.2°C 54% 2.7 mph SE4.3 kmh SE 12.1 mph19.5 kmh 29.53 in1000.0 mb 0.00 in0.0 mm 0.00 in0.0 mm 0.00 in0.0 mm
11:10 AM 21.7°F-5.7°C 11.1°F-11.6°C 63% 3.4 mph SSE5.5 kmh SSE 7.4 mph11.9 kmh 29.54 in1000.3 mb 0.00 in0.0 mm 0.00 in0.0 mm 0.00 in0.0 mm
11:00 AM 18.1°F-7.7°C 6.7°F-14.1°C 60% 2.5 mph SE4.0 kmh SE 4.7 mph7.6 kmh 29.53 in1000.0 mb 0.00 in0.0 mm 0.00 in0.0 mm 0.00 in0.0 mm
10:50 AM 15.3°F-9.3°C 4.6°F-15.2°C 62% 3.7 mph SE6.0 kmh SE 7.4 mph11.9 kmh 29.55 in1000.7 mb 0.00 in0.0 mm 0.00 in0.0 mm 0.00 in0.0 mm
10:40 AM 16.5°F-8.6°C 5.5°F-14.7°C 61% 3.3 mph SE5.3 kmh SE 6.0 mph9.7 kmh 29.55 in1000.7 mb 0.00 in0.0 mm 0.00 in0.0 mm 0.00 in0.0 mm
10:30 AM 16.7°F-8.5°C 5.3°F-14.8°C 60% 3.4 mph SE5.5 kmh SE 7.4 mph11.9 kmh 29.55 in1000.7 mb 0.00 in0.0 mm 0.00 in0.0 mm 0.00 in0.0 mm
10:20 AM 17.8°F-7.9°C 7.0°F-13.9°C 62% 2.7 mph SE4.3 kmh SE 6.7 mph10.8 kmh 29.55 in1000.7 mb 0.00 in0.0 mm 0.00 in0.0 mm 0.00 in0.0 mm
10:10 AM 16.0°F-8.9°C 5.7°F-14.6°C 63% 3.0 mph SE4.8 kmh SE 6.0 mph9.7 kmh 29.56 in1001.0 mb 0.00 in0.0 mm 0.00 in0.0 mm 0.00 in0.0 mm
10:00 AM 17.8°F-7.9°C 8.1°F-13.3°C 65% 3.2 mph SE5.1 kmh SE 6.7 mph10.8 kmh 29.55 in1000.7 mb 0.00 in0.0 mm 0.00 in0.0 mm 0.00 in0.0 mm
09:50 AM 15.1°F-9.4°C 6.8°F-14.0°C 69% 2.5 mph SE4.0 kmh SE 6.0 mph9.7 kmh 29.55 in1000.7 mb 0.00 in0.0 mm 0.00 in0.0 mm 0.00 in0.0 mm
09:40 AM 17.6°F-8.0°C 8.2°F-13.2°C 66% 2.6 mph SE4.2 kmh SE 5.4 mph8.7 kmh 29.56 in1001.0 mb 0.00 in0.0 mm 0.00 in0.0 mm 0.00 in0.0 mm
09:30 AM 17.1°F-8.3°C 6.4°F-14.2°C 62% 3.4 mph SE5.5 kmh SE 8.1 mph13.0 kmh 29.56 in1001.0 mb 0.00 in0.0 mm 0.00 in0.0 mm 0.00 in0.0 mm
09:20 AM 23.5°F-4.7°C 11.7°F-11.3°C 60% 2.2 mph ESE3.5 kmh ESE 4.7 mph7.6 kmh 29.56 in1001.0 mb 0.00 in0.0 mm 0.00 in0.0 mm 0.00 in0.0 mm
09:10 AM 30.6°F-0.8°C 20.2°F-6.6°C 65% 2.3 mph S3.7 kmh S 7.4 mph11.9 kmh 29.57 in1001.4 mb 0.00 in0.0 mm 0.00 in0.0 mm 0.00 in0.0 mm
09:00 AM 21.2°F-6.0°C 13.9°F-10.1°C 73% 2.6 mph E4.2 kmh E 5.4 mph8.7 kmh 29.57 in1001.4 mb 0.00 in0.0 mm 0.00 in0.0 mm 0.00 in0.0 mm
08:50 AM 19.4°F-7.0°C 13.1°F-10.5°C 76% 2.2 mph SE3.5 kmh SE 5.4 mph8.7 kmh 29.58 in1001.7 mb 0.00 in0.0 mm 0.00 in0.0 mm 0.00 in0.0 mm
08:40 AM 17.1°F-8.3°C 9.7°F-12.4°C 72% 2.2 mph SSE3.5 kmh SSE 5.4 mph8.7 kmh 29.58 in1001.7 mb 0.00 in0.0 mm 0.00 in0.0 mm 0.00 in0.0 mm
08:30 AM 19.0°F-7.2°C 11.6°F-11.3°C 72% 3.2 mph SE5.1 kmh SE 6.7 mph10.8 kmh 29.59 in1002.0 mb 0.00 in0.0 mm 0.00 in0.0 mm 0.00 in0.0 mm
08:20 AM 20.7°F-6.3°C 16.1°F-8.8°C 82% 2.1 mph SE3.4 kmh SE 4.7 mph7.6 kmh 29.57 in1001.4 mb 0.00 in0.0 mm 0.00 in0.0 mm 0.00 in0.0 mm
08:10 AM 18.5°F-7.5°C 13.1°F-10.5°C 79% 1.9 mph S3.1 kmh S 4.0 mph6.4 kmh 29.58 in1001.7 mb 0.00 in0.0 mm 0.00 in0.0 mm 0.00 in0.0 mm
08:00 AM 16.5°F-8.6°C 11.5°F-11.4°C 80% 2.8 mph E4.5 kmh E 5.4 mph8.7 kmh 29.58 in1001.7 mb 0.00 in0.0 mm 0.00 in0.0 mm 0.00 in0.0 mm
07:50 AM 15.6°F-9.1°C 10.3°F-12.1°C 79% 2.3 mph SE3.7 kmh SE 5.4 mph8.7 kmh 29.58 in1001.7 mb 0.00 in0.0 mm 0.00 in0.0 mm 0.00 in0.0 mm
07:40 AM 16.0°F-8.9°C 8.9°F-12.8°C 73% 2.6 mph SE4.2 kmh SE 4.7 mph7.6 kmh 29.58 in1001.7 mb 0.00 in0.0 mm 0.00 in0.0 mm 0.00 in0.0 mm
07:36 AM 36.1°F2.3°C 0.9°F-17.3°C 22% 2.7 mph E4.3 kmh E 5.4 mph8.7 kmh 29.61 in1002.7 mb 0.00 in0.0 mm 0.00 in0.0 mm 0.00 in0.0 mm
07:25 AM 23.0°F-5.0°C 17.2°F-8.2°C 78% 0.7 mph SE1.1 kmh SE 2.7 mph4.3 kmh 29.57 in1001.4 mb 0.00 in0.0 mm 0.00 in0.0 mm 0.00 in0.0 mm